sensor_id;sensor_type;location;lat;lon;timestamp;temperature;humidity
12335;DHT22;6233;51.560;9.986;2023-01-16T00:01:52;4.10;99.90
12335;DHT22;6233;51.560;9.986;2023-01-16T00:04:54;4.10;99.90
12335;DHT22;6233;51.560;9.986;2023-01-16T00:07:56;4.10;99.90
12335;DHT22;6233;51.560;9.986;2023-01-16T00:10:57;4.10;99.90
12335;DHT22;6233;51.560;9.986;2023-01-16T00:13:59;4.20;99.90
12335;DHT22;6233;51.560;9.986;2023-01-16T00:17:01;4.20;99.90
12335;DHT22;6233;51.560;9.986;2023-01-16T00:20:03;4.20;99.90
12335;DHT22;6233;51.560;9.986;2023-01-16T00:23:04;4.20;99.90
12335;DHT22;6233;51.560;9.986;2023-01-16T00:26:07;4.20;99.90
12335;DHT22;6233;51.560;9.986;2023-01-16T00:29:10;4.10;99.90
12335;DHT22;6233;51.560;9.986;2023-01-16T00:32:12;4.10;99.90
12335;DHT22;6233;51.560;9.986;2023-01-16T00:35:16;4.20;99.90
12335;DHT22;6233;51.560;9.986;2023-01-16T00:38:18;4.20;99.90
12335;DHT22;6233;51.560;9.986;2023-01-16T00:41:20;4.10;99.90
12335;DHT22;6233;51.560;9.986;2023-01-16T00:44:21;4.10;99.90
12335;DHT22;6233;51.560;9.986;2023-01-16T00:47:23;4.10;99.90
12335;DHT22;6233;51.560;9.986;2023-01-16T00:50:25;4.10;99.90
12335;DHT22;6233;51.560;9.986;2023-01-16T00:53:27;4.10;99.90
12335;DHT22;6233;51.560;9.986;2023-01-16T00:56:28;4.20;99.90
12335;DHT22;6233;51.560;9.986;2023-01-16T00:59:48;4.20;99.90
12335;DHT22;6233;51.560;9.986;2023-01-16T01:03:07;4.10;99.90
12335;DHT22;6233;51.560;9.986;2023-01-16T01:06:10;4.20;99.90
12335;DHT22;6233;51.560;9.986;2023-01-16T01:09:14;4.20;99.90
12335;DHT22;6233;51.560;9.986;2023-01-16T01:12:18;4.20;99.90
12335;DHT22;6233;51.560;9.986;2023-01-16T01:15:21;4.20;99.90
12335;DHT22;6233;51.560;9.986;2023-01-16T01:18:23;4.30;99.90
12335;DHT22;6233;51.560;9.986;2023-01-16T01:21:24;4.30;99.90
12335;DHT22;6233;51.560;9.986;2023-01-16T01:24:26;4.30;99.90
12335;DHT22;6233;51.560;9.986;2023-01-16T01:27:28;4.30;99.90
12335;DHT22;6233;51.560;9.986;2023-01-16T01:30:30;4.30;99.90
12335;DHT22;6233;51.560;9.986;2023-01-16T01:33:31;4.30;99.90
12335;DHT22;6233;51.560;9.986;2023-01-16T01:36:33;4.40;99.90
12335;DHT22;6233;51.560;9.986;2023-01-16T01:39:35;4.30;99.90
12335;DHT22;6233;51.560;9.986;2023-01-16T01:42:40;4.40;99.90
12335;DHT22;6233;51.560;9.986;2023-01-16T01:45:49;4.40;99.90
12335;DHT22;6233;51.560;9.986;2023-01-16T01:49:07;4.40;99.90
12335;DHT22;6233;51.560;9.986;2023-01-16T01:52:10;4.40;99.90
12335;DHT22;6233;51.560;9.986;2023-01-16T01:55:13;4.40;99.90
12335;DHT22;6233;51.560;9.986;2023-01-16T01:58:18;4.40;99.90
12335;DHT22;6233;51.560;9.986;2023-01-16T02:01:24;4.40;99.90
12335;DHT22;6233;51.560;9.986;2023-01-16T02:04:31;4.40;99.90
12335;DHT22;6233;51.560;9.986;2023-01-16T02:07:34;4.30;99.90
12335;DHT22;6233;51.560;9.986;2023-01-16T02:10:51;4.30;99.90
12335;DHT22;6233;51.560;9.986;2023-01-16T02:14:13;4.40;99.90
12335;DHT22;6233;51.560;9.986;2023-01-16T02:17:19;4.30;99.90
12335;DHT22;6233;51.560;9.986;2023-01-16T02:20:49;4.40;99.90
12335;DHT22;6233;51.560;9.986;2023-01-16T02:34:37;4.40;99.90
12335;DHT22;6233;51.560;9.986;2023-01-16T02:37:48;4.40;99.90
12335;DHT22;6233;51.560;9.986;2023-01-16T02:47:46;4.40;99.90
12335;DHT22;6233;51.560;9.986;2023-01-16T02:54:34;4.30;99.90
12335;DHT22;6233;51.560;9.986;2023-01-16T02:57:44;4.30;99.90
12335;DHT22;6233;51.560;9.986;2023-01-16T03:00:51;4.30;99.90
12335;DHT22;6233;51.560;9.986;2023-01-16T03:07:11;4.20;99.90
12335;DHT22;6233;51.560;9.986;2023-01-16T03:10:42;4.20;99.90
12335;DHT22;6233;51.560;9.986;2023-01-16T03:14:09;4.30;99.90
12335;DHT22;6233;51.560;9.986;2023-01-16T03:20:50;4.20;99.90
12335;DHT22;6233;51.560;9.986;2023-01-16T03:24:31;4.20;99.90
12335;DHT22;6233;51.560;9.986;2023-01-16T03:28:16;4.20;99.90
12335;DHT22;6233;51.560;9.986;2023-01-16T03:31:26;4.20;99.90
12335;DHT22;6233;51.560;9.986;2023-01-16T03:35:00;4.20;99.90
12335;DHT22;6233;51.560;9.986;2023-01-16T03:38:08;4.20;99.90
12335;DHT22;6233;51.560;9.986;2023-01-16T03:41:14;4.10;99.90
12335;DHT22;6233;51.560;9.986;2023-01-16T03:44:26;4.10;99.90
12335;DHT22;6233;51.560;9.986;2023-01-16T03:47:37;4.10;99.90
12335;DHT22;6233;51.560;9.986;2023-01-16T03:50:47;4.10;99.90
12335;DHT22;6233;51.560;9.986;2023-01-16T04:00:23;4.00;99.90
12335;DHT22;6233;51.560;9.986;2023-01-16T04:10:19;4.00;99.90
12335;DHT22;6233;51.560;9.986;2023-01-16T04:13:27;4.00;99.90
12335;DHT22;6233;51.560;9.986;2023-01-16T04:16:30;4.10;99.90
12335;DHT22;6233;51.560;9.986;2023-01-16T04:19:32;4.10;99.90
12335;DHT22;6233;51.560;9.986;2023-01-16T04:22:35;4.00;99.90
12335;DHT22;6233;51.560;9.986;2023-01-16T04:25:37;4.10;99.90
12335;DHT22;6233;51.560;9.986;2023-01-16T04:28:38;4.10;99.90
12335;DHT22;6233;51.560;9.986;2023-01-16T04:31:40;4.10;99.90
12335;DHT22;6233;51.560;9.986;2023-01-16T04:34:42;4.10;99.90
12335;DHT22;6233;51.560;9.986;2023-01-16T04:37:44;4.10;99.90
12335;DHT22;6233;51.560;9.986;2023-01-16T04:40:45;4.10;99.90
12335;DHT22;6233;51.560;9.986;2023-01-16T04:43:47;4.00;99.90
12335;DHT22;6233;51.560;9.986;2023-01-16T04:46:49;4.10;99.90
12335;DHT22;6233;51.560;9.986;2023-01-16T04:49:50;4.00;99.90
12335;DHT22;6233;51.560;9.986;2023-01-16T04:52:55;3.90;99.90
12335;DHT22;6233;51.560;9.986;2023-01-16T04:56:01;4.00;99.90
12335;DHT22;6233;51.560;9.986;2023-01-16T04:59:03;4.00;99.90
12335;DHT22;6233;51.560;9.986;2023-01-16T05:02:07;4.00;99.90
12335;DHT22;6233;51.560;9.986;2023-01-16T05:05:09;4.00;99.90
12335;DHT22;6233;51.560;9.986;2023-01-16T05:08:10;4.00;99.90
12335;DHT22;6233;51.560;9.986;2023-01-16T05:11:18;4.00;99.90
12335;DHT22;6233;51.560;9.986;2023-01-16T05:14:20;4.00;99.90
12335;DHT22;6233;51.560;9.986;2023-01-16T05:17:22;4.00;99.90
12335;DHT22;6233;51.560;9.986;2023-01-16T05:20:26;4.00;99.90
12335;DHT22;6233;51.560;9.986;2023-01-16T05:23:28;4.00;99.90
12335;DHT22;6233;51.560;9.986;2023-01-16T05:26:29;4.00;99.90
12335;DHT22;6233;51.560;9.986;2023-01-16T05:29:31;4.00;99.90
12335;DHT22;6233;51.560;9.986;2023-01-16T05:32:33;4.00;99.90
12335;DHT22;6233;51.560;9.986;2023-01-16T05:35:35;4.00;99.90
12335;DHT22;6233;51.560;9.986;2023-01-16T05:38:36;4.00;99.90
12335;DHT22;6233;51.560;9.986;2023-01-16T05:41:38;4.00;99.90
12335;DHT22;6233;51.560;9.986;2023-01-16T05:44:39;4.00;99.90
12335;DHT22;6233;51.560;9.986;2023-01-16T05:47:43;4.00;99.90
12335;DHT22;6233;51.560;9.986;2023-01-16T05:50:45;4.00;99.90
12335;DHT22;6233;51.560;9.986;2023-01-16T05:53:50;3.90;99.90
12335;DHT22;6233;51.560;9.986;2023-01-16T05:56:52;4.00;99.90
12335;DHT22;6233;51.560;9.986;2023-01-16T05:59:54;4.00;99.90
12335;DHT22;6233;51.560;9.986;2023-01-16T06:02:56;4.00;99.90
12335;DHT22;6233;51.560;9.986;2023-01-16T06:05:57;4.00;99.90
12335;DHT22;6233;51.560;9.986;2023-01-16T06:09:03;4.00;99.90
12335;DHT22;6233;51.560;9.986;2023-01-16T06:12:04;4.00;99.90
12335;DHT22;6233;51.560;9.986;2023-01-16T06:15:09;4.00;99.90
12335;DHT22;6233;51.560;9.986;2023-01-16T06:18:10;3.90;99.90
12335;DHT22;6233;51.560;9.986;2023-01-16T06:21:12;3.90;99.90
12335;DHT22;6233;51.560;9.986;2023-01-16T06:24:14;3.80;99.90
12335;DHT22;6233;51.560;9.986;2023-01-16T06:27:16;3.80;99.90
12335;DHT22;6233;51.560;9.986;2023-01-16T06:30:18;3.80;99.90
12335;DHT22;6233;51.560;9.986;2023-01-16T06:33:19;3.80;99.90
12335;DHT22;6233;51.560;9.986;2023-01-16T06:36:21;3.80;99.90
12335;DHT22;6233;51.560;9.986;2023-01-16T06:39:23;3.80;99.90
12335;DHT22;6233;51.560;9.986;2023-01-16T06:42:24;3.80;99.90
12335;DHT22;6233;51.560;9.986;2023-01-16T06:45:26;3.80;99.90
12335;DHT22;6233;51.560;9.986;2023-01-16T06:48:28;3.80;99.90
12335;DHT22;6233;51.560;9.986;2023-01-16T06:51:30;3.80;99.90
12335;DHT22;6233;51.560;9.986;2023-01-16T06:54:31;3.80;99.90
12335;DHT22;6233;51.560;9.986;2023-01-16T06:57:35;3.90;99.90
12335;DHT22;6233;51.560;9.986;2023-01-16T07:00:37;3.90;99.90
12335;DHT22;6233;51.560;9.986;2023-01-16T07:03:39;3.90;99.90
12335;DHT22;6233;51.560;9.986;2023-01-16T07:06:41;3.90;99.90
12335;DHT22;6233;51.560;9.986;2023-01-16T07:09:52;4.00;99.90
12335;DHT22;6233;51.560;9.986;2023-01-16T07:12:54;4.00;99.90
12335;DHT22;6233;51.560;9.986;2023-01-16T07:15:56;3.90;99.90
12335;DHT22;6233;51.560;9.986;2023-01-16T07:19:16;3.90;99.90
12335;DHT22;6233;51.560;9.986;2023-01-16T07:22:36;3.90;99.90
12335;DHT22;6233;51.560;9.986;2023-01-16T07:25:42;3.90;99.90
12335;DHT22;6233;51.560;9.986;2023-01-16T07:28:44;3.90;99.90
12335;DHT22;6233;51.560;9.986;2023-01-16T07:31:46;3.90;99.90
12335;DHT22;6233;51.560;9.986;2023-01-16T07:34:54;3.90;99.90
12335;DHT22;6233;51.560;9.986;2023-01-16T07:37:56;3.90;99.90
12335;DHT22;6233;51.560;9.986;2023-01-16T07:40:58;3.80;99.90
12335;DHT22;6233;51.560;9.986;2023-01-16T07:44:00;3.80;99.90
12335;DHT22;6233;51.560;9.986;2023-01-16T07:47:01;3.70;99.90
12335;DHT22;6233;51.560;9.986;2023-01-16T07:50:03;3.70;99.90
12335;DHT22;6233;51.560;9.986;2023-01-16T07:53:06;3.70;99.90
12335;DHT22;6233;51.560;9.986;2023-01-16T07:56:07;3.60;99.90
12335;DHT22;6233;51.560;9.986;2023-01-16T07:59:18;3.60;99.90
12335;DHT22;6233;51.560;9.986;2023-01-16T08:02:20;3.60;99.90
12335;DHT22;6233;51.560;9.986;2023-01-16T08:05:22;3.60;99.90
12335;DHT22;6233;51.560;9.986;2023-01-16T08:08:24;3.60;99.90
12335;DHT22;6233;51.560;9.986;2023-01-16T08:11:30;3.60;99.90
12335;DHT22;6233;51.560;9.986;2023-01-16T08:14:37;3.60;99.90
12335;DHT22;6233;51.560;9.986;2023-01-16T08:21:23;3.70;99.90
12335;DHT22;6233;51.560;9.986;2023-01-16T08:24:25;3.70;99.90
12335;DHT22;6233;51.560;9.986;2023-01-16T08:27:27;3.70;99.90
12335;DHT22;6233;51.560;9.986;2023-01-16T08:30:29;3.70;99.90
12335;DHT22;6233;51.560;9.986;2023-01-16T08:33:31;3.70;99.90
12335;DHT22;6233;51.560;9.986;2023-01-16T08:36:32;3.70;99.90
12335;DHT22;6233;51.560;9.986;2023-01-16T08:39:37;3.70;99.90
12335;DHT22;6233;51.560;9.986;2023-01-16T08:42:39;3.70;99.90
12335;DHT22;6233;51.560;9.986;2023-01-16T08:45:59;3.70;99.90
12335;DHT22;6233;51.560;9.986;2023-01-16T08:49:27;3.70;99.90
12335;DHT22;6233;51.560;9.986;2023-01-16T08:52:48;3.70;99.90
12335;DHT22;6233;51.560;9.986;2023-01-16T08:55:50;3.70;99.90
12335;DHT22;6233;51.560;9.986;2023-01-16T08:58:51;3.80;99.90
12335;DHT22;6233;51.560;9.986;2023-01-16T09:02:25;3.80;99.90
12335;DHT22;6233;51.560;9.986;2023-01-16T09:05:28;3.80;99.90
12335;DHT22;6233;51.560;9.986;2023-01-16T09:08:30;3.80;99.90
12335;DHT22;6233;51.560;9.986;2023-01-16T09:11:32;3.90;99.90
12335;DHT22;6233;51.560;9.986;2023-01-16T09:14:53;3.90;99.90
12335;DHT22;6233;51.560;9.986;2023-01-16T09:17:56;4.00;99.90
12335;DHT22;6233;51.560;9.986;2023-01-16T09:20:58;4.00;99.90
12335;DHT22;6233;51.560;9.986;2023-01-16T09:23:59;4.10;99.90
12335;DHT22;6233;51.560;9.986;2023-01-16T09:27:02;4.20;99.90
12335;DHT22;6233;51.560;9.986;2023-01-16T09:30:05;4.20;99.90
12335;DHT22;6233;51.560;9.986;2023-01-16T09:33:07;4.20;99.90
12335;DHT22;6233;51.560;9.986;2023-01-16T09:36:09;4.20;99.90
12335;DHT22;6233;51.560;9.986;2023-01-16T09:39:11;4.20;99.90
12335;DHT22;6233;51.560;9.986;2023-01-16T09:46:17;4.20;99.90
12335;DHT22;6233;51.560;9.986;2023-01-16T09:49:28;4.20;99.90
12335;DHT22;6233;51.560;9.986;2023-01-16T09:52:34;4.20;99.90
12335;DHT22;6233;51.560;9.986;2023-01-16T09:55:55;4.30;99.90
12335;DHT22;6233;51.560;9.986;2023-01-16T09:59:24;4.40;99.90
12335;DHT22;6233;51.560;9.986;2023-01-16T10:02:45;4.30;99.90
12335;DHT22;6233;51.560;9.986;2023-01-16T10:05:55;4.30;99.90
12335;DHT22;6233;51.560;9.986;2023-01-16T10:12:29;4.30;99.90
12335;DHT22;6233;51.560;9.986;2023-01-16T10:22:25;4.70;99.90
12335;DHT22;6233;51.560;9.986;2023-01-16T10:25:54;4.70;99.90
12335;DHT22;6233;51.560;9.986;2023-01-16T10:33:13;4.90;99.90
12335;DHT22;6233;51.560;9.986;2023-01-16T10:36:10;4.90;99.90
12335;DHT22;6233;51.560;9.986;2023-01-16T10:39:15;4.90;99.90
12335;DHT22;6233;51.560;9.986;2023-01-16T10:42:23;5.00;99.90
12335;DHT22;6233;51.560;9.986;2023-01-16T10:45:45;5.00;99.90
12335;DHT22;6233;51.560;9.986;2023-01-16T10:49:25;5.00;99.90
12335;DHT22;6233;51.560;9.986;2023-01-16T10:52:27;5.00;99.90
12335;DHT22;6233;51.560;9.986;2023-01-16T10:55:56;5.00;99.90
12335;DHT22;6233;51.560;9.986;2023-01-16T10:59:28;5.00;99.90
12335;DHT22;6233;51.560;9.986;2023-01-16T11:02:34;5.00;99.90
12335;DHT22;6233;51.560;9.986;2023-01-16T11:05:46;5.00;99.90
12335;DHT22;6233;51.560;9.986;2023-01-16T11:09:42;5.00;99.90
12335;DHT22;6233;51.560;9.986;2023-01-16T11:27:23;5.10;99.90
12335;DHT22;6233;51.560;9.986;2023-01-16T11:30:38;5.00;99.90
12335;DHT22;6233;51.560;9.986;2023-01-16T11:42:26;5.00;99.90
12335;DHT22;6233;51.560;9.986;2023-01-16T11:45:50;5.00;99.90
12335;DHT22;6233;51.560;9.986;2023-01-16T11:49:17;5.10;99.90
12335;DHT22;6233;51.560;9.986;2023-01-16T11:52:22;5.10;99.90
12335;DHT22;6233;51.560;9.986;2023-01-16T12:02:41;5.10;99.90
12335;DHT22;6233;51.560;9.986;2023-01-16T12:09:22;5.00;99.90
12335;DHT22;6233;51.560;9.986;2023-01-16T12:12:40;5.00;99.90
12335;DHT22;6233;51.560;9.986;2023-01-16T12:23:05;4.80;99.90
12335;DHT22;6233;51.560;9.986;2023-01-16T12:26:23;4.70;99.90
12335;DHT22;6233;51.560;9.986;2023-01-16T12:33:05;4.80;99.90
12335;DHT22;6233;51.560;9.986;2023-01-16T12:36:42;4.90;99.90
12335;DHT22;6233;51.560;9.986;2023-01-16T12:43:19;4.80;99.90
12335;DHT22;6233;51.560;9.986;2023-01-16T12:46:34;4.70;99.90
12335;DHT22;6233;51.560;9.986;2023-01-16T12:53:37;4.70;99.90
12335;DHT22;6233;51.560;9.986;2023-01-16T13:00:30;4.40;99.90
12335;DHT22;6233;51.560;9.986;2023-01-16T13:03:41;4.30;99.90
12335;DHT22;6233;51.560;9.986;2023-01-16T13:06:52;4.20;99.90
12335;DHT22;6233;51.560;9.986;2023-01-16T13:09:59;4.20;99.90
12335;DHT22;6233;51.560;9.986;2023-01-16T13:13:26;4.00;99.90
12335;DHT22;6233;51.560;9.986;2023-01-16T13:16:30;3.90;99.90
12335;DHT22;6233;51.560;9.986;2023-01-16T13:19:38;3.80;99.90
12335;DHT22;6233;51.560;9.986;2023-01-16T13:22:52;3.80;99.90
12335;DHT22;6233;51.560;9.986;2023-01-16T13:26:03;3.60;99.90
12335;DHT22;6233;51.560;9.986;2023-01-16T13:29:20;3.50;99.90
12335;DHT22;6233;51.560;9.986;2023-01-16T13:32:49;3.40;99.90
12335;DHT22;6233;51.560;9.986;2023-01-16T13:39:41;3.20;99.90
12335;DHT22;6233;51.560;9.986;2023-01-16T13:42:53;3.20;99.90
12335;DHT22;6233;51.560;9.986;2023-01-16T13:45:57;3.10;99.90
12335;DHT22;6233;51.560;9.986;2023-01-16T13:49:04;3.10;99.90
12335;DHT22;6233;51.560;9.986;2023-01-16T13:52:19;3.10;99.90
12335;DHT22;6233;51.560;9.986;2023-01-16T13:55:25;3.10;99.90
12335;DHT22;6233;51.560;9.986;2023-01-16T13:58:28;3.00;99.90
12335;DHT22;6233;51.560;9.986;2023-01-16T14:08:24;3.00;99.90
12335;DHT22;6233;51.560;9.986;2023-01-16T14:15:16;3.10;99.90
12335;DHT22;6233;51.560;9.986;2023-01-16T14:21:43;3.20;99.90
12335;DHT22;6233;51.560;9.986;2023-01-16T14:25:05;3.20;99.90
12335;DHT22;6233;51.560;9.986;2023-01-16T14:28:16;3.20;99.90
12335;DHT22;6233;51.560;9.986;2023-01-16T14:31:33;3.20;99.90
12335;DHT22;6233;51.560;9.986;2023-01-16T14:38:02;3.30;99.90
12335;DHT22;6233;51.560;9.986;2023-01-16T14:41:05;3.30;99.90
12335;DHT22;6233;51.560;9.986;2023-01-16T14:44:28;3.30;99.90
12335;DHT22;6233;51.560;9.986;2023-01-16T14:51:32;3.40;99.90
12335;DHT22;6233;51.560;9.986;2023-01-16T14:54:52;3.40;99.90
12335;DHT22;6233;51.560;9.986;2023-01-16T14:58:58;3.40;99.90
12335;DHT22;6233;51.560;9.986;2023-01-16T15:01:44;3.50;99.90
12335;DHT22;6233;51.560;9.986;2023-01-16T15:05:20;3.50;99.90
12335;DHT22;6233;51.560;9.986;2023-01-16T15:08:30;3.50;99.90
12335;DHT22;6233;51.560;9.986;2023-01-16T15:12:24;3.50;99.90
12335;DHT22;6233;51.560;9.986;2023-01-16T15:15:18;3.50;99.90
12335;DHT22;6233;51.560;9.986;2023-01-16T15:18:21;3.60;99.90
12335;DHT22;6233;51.560;9.986;2023-01-16T15:21:45;3.60;99.90
12335;DHT22;6233;51.560;9.986;2023-01-16T15:25:07;3.60;99.90
12335;DHT22;6233;51.560;9.986;2023-01-16T15:28:41;3.60;99.90
12335;DHT22;6233;51.560;9.986;2023-01-16T15:31:47;3.70;99.90
12335;DHT22;6233;51.560;9.986;2023-01-16T15:35:24;3.70;99.90
12335;DHT22;6233;51.560;9.986;2023-01-16T15:38:26;3.70;99.90
12335;DHT22;6233;51.560;9.986;2023-01-16T15:41:30;3.60;99.90
12335;DHT22;6233;51.560;9.986;2023-01-16T15:44:51;3.60;99.90
12335;DHT22;6233;51.560;9.986;2023-01-16T15:48:40;3.50;99.90
12335;DHT22;6233;51.560;9.986;2023-01-16T15:51:52;3.50;99.90
12335;DHT22;6233;51.560;9.986;2023-01-16T15:54:54;3.50;99.90
12335;DHT22;6233;51.560;9.986;2023-01-16T15:57:58;3.50;99.90
12335;DHT22;6233;51.560;9.986;2023-01-16T16:01:04;3.50;99.90
12335;DHT22;6233;51.560;9.986;2023-01-16T16:04:06;3.40;99.90
12335;DHT22;6233;51.560;9.986;2023-01-16T16:07:11;3.50;99.90
12335;DHT22;6233;51.560;9.986;2023-01-16T16:10:14;3.40;99.90
12335;DHT22;6233;51.560;9.986;2023-01-16T16:13:36;3.50;99.90
12335;DHT22;6233;51.560;9.986;2023-01-16T16:16:39;3.60;99.90
12335;DHT22;6233;51.560;9.986;2023-01-16T16:20:35;3.60;99.90
12335;DHT22;6233;51.560;9.986;2023-01-16T16:23:41;3.60;99.90
12335;DHT22;6233;51.560;9.986;2023-01-16T16:26:43;3.60;99.90
12335;DHT22;6233;51.560;9.986;2023-01-16T16:29:51;3.60;99.90
12335;DHT22;6233;51.560;9.986;2023-01-16T16:32:54;3.60;99.90
12335;DHT22;6233;51.560;9.986;2023-01-16T16:35:57;3.60;99.90
12335;DHT22;6233;51.560;9.986;2023-01-16T16:38:59;3.60;99.90
12335;DHT22;6233;51.560;9.986;2023-01-16T16:45:32;3.60;99.90
12335;DHT22;6233;51.560;9.986;2023-01-16T16:48:37;3.60;99.90
12335;DHT22;6233;51.560;9.986;2023-01-16T16:51:39;3.60;99.90
12335;DHT22;6233;51.560;9.986;2023-01-16T16:54:40;3.60;99.90
12335;DHT22;6233;51.560;9.986;2023-01-16T16:57:52;3.60;99.90
12335;DHT22;6233;51.560;9.986;2023-01-16T17:00:54;3.60;99.90
12335;DHT22;6233;51.560;9.986;2023-01-16T17:04:00;3.60;99.90
12335;DHT22;6233;51.560;9.986;2023-01-16T17:07:03;3.60;99.90
12335;DHT22;6233;51.560;9.986;2023-01-16T17:10:17;3.60;99.90
12335;DHT22;6233;51.560;9.986;2023-01-16T17:13:21;3.60;99.90
12335;DHT22;6233;51.560;9.986;2023-01-16T17:16:24;3.60;99.90
12335;DHT22;6233;51.560;9.986;2023-01-16T17:19:29;3.50;99.90
12335;DHT22;6233;51.560;9.986;2023-01-16T17:22:32;3.50;99.90
12335;DHT22;6233;51.560;9.986;2023-01-16T17:25:34;3.60;99.90
12335;DHT22;6233;51.560;9.986;2023-01-16T17:28:35;3.60;99.90
12335;DHT22;6233;51.560;9.986;2023-01-16T17:31:39;3.60;99.90
12335;DHT22;6233;51.560;9.986;2023-01-16T17:34:41;3.50;99.90
12335;DHT22;6233;51.560;9.986;2023-01-16T17:37:43;3.50;99.90
12335;DHT22;6233;51.560;9.986;2023-01-16T17:40:45;3.50;99.90
12335;DHT22;6233;51.560;9.986;2023-01-16T17:43:54;3.50;99.90
12335;DHT22;6233;51.560;9.986;2023-01-16T17:47:15;3.60;99.90
12335;DHT22;6233;51.560;9.986;2023-01-16T17:50:16;3.60;99.90
12335;DHT22;6233;51.560;9.986;2023-01-16T17:53:26;3.70;99.90
12335;DHT22;6233;51.560;9.986;2023-01-16T17:56:28;3.70;99.90
12335;DHT22;6233;51.560;9.986;2023-01-16T17:59:33;3.70;99.90
12335;DHT22;6233;51.560;9.986;2023-01-16T18:02:38;3.70;99.90
12335;DHT22;6233;51.560;9.986;2023-01-16T18:05:39;3.70;99.90
12335;DHT22;6233;51.560;9.986;2023-01-16T18:08:41;3.70;99.90
12335;DHT22;6233;51.560;9.986;2023-01-16T18:11:43;3.80;99.90
12335;DHT22;6233;51.560;9.986;2023-01-16T18:15:04;3.80;99.90
12335;DHT22;6233;51.560;9.986;2023-01-16T18:18:25;3.80;99.90
12335;DHT22;6233;51.560;9.986;2023-01-16T18:21:27;3.80;99.90
12335;DHT22;6233;51.560;9.986;2023-01-16T18:24:47;3.80;99.90
12335;DHT22;6233;51.560;9.986;2023-01-16T18:27:49;3.80;99.90
12335;DHT22;6233;51.560;9.986;2023-01-16T18:30:51;3.80;99.90
12335;DHT22;6233;51.560;9.986;2023-01-16T18:33:54;3.70;99.90
12335;DHT22;6233;51.560;9.986;2023-01-16T18:36:56;3.80;99.90
12335;DHT22;6233;51.560;9.986;2023-01-16T18:39:58;3.70;99.90
12335;DHT22;6233;51.560;9.986;2023-01-16T18:43:18;3.70;99.90
12335;DHT22;6233;51.560;9.986;2023-01-16T18:46:39;3.70;99.90
12335;DHT22;6233;51.560;9.986;2023-01-16T18:50:00;3.60;99.90
12335;DHT22;6233;51.560;9.986;2023-01-16T18:53:31;3.60;99.90
12335;DHT22;6233;51.560;9.986;2023-01-16T18:56:55;3.70;99.90
12335;DHT22;6233;51.560;9.986;2023-01-16T19:00:17;3.70;99.90
12335;DHT22;6233;51.560;9.986;2023-01-16T19:03:37;3.80;99.90
12335;DHT22;6233;51.560;9.986;2023-01-16T19:06:39;3.70;99.90
12335;DHT22;6233;51.560;9.986;2023-01-16T19:09:43;3.80;99.90
12335;DHT22;6233;51.560;9.986;2023-01-16T19:12:45;3.90;99.90
12335;DHT22;6233;51.560;9.986;2023-01-16T19:15:48;3.90;99.90
12335;DHT22;6233;51.560;9.986;2023-01-16T19:19:08;3.90;99.90
12335;DHT22;6233;51.560;9.986;2023-01-16T19:22:10;3.90;99.90
12335;DHT22;6233;51.560;9.986;2023-01-16T19:25:12;4.00;99.90
12335;DHT22;6233;51.560;9.986;2023-01-16T19:28:14;4.00;99.90
12335;DHT22;6233;51.560;9.986;2023-01-16T19:31:16;4.10;99.90
12335;DHT22;6233;51.560;9.986;2023-01-16T19:34:18;4.10;99.90
12335;DHT22;6233;51.560;9.986;2023-01-16T19:37:22;4.10;99.90
12335;DHT22;6233;51.560;9.986;2023-01-16T19:40:24;4.20;99.90
12335;DHT22;6233;51.560;9.986;2023-01-16T19:43:25;4.10;99.90
12335;DHT22;6233;51.560;9.986;2023-01-16T19:46:46;4.10;99.90
12335;DHT22;6233;51.560;9.986;2023-01-16T19:49:48;4.00;99.90
12335;DHT22;6233;51.560;9.986;2023-01-16T19:52:50;4.00;99.90
12335;DHT22;6233;51.560;9.986;2023-01-16T19:55:51;4.00;99.90
12335;DHT22;6233;51.560;9.986;2023-01-16T19:58:54;4.00;99.90
12335;DHT22;6233;51.560;9.986;2023-01-16T20:02:01;4.00;99.90
12335;DHT22;6233;51.560;9.986;2023-01-16T20:05:06;4.00;99.90
12335;DHT22;6233;51.560;9.986;2023-01-16T20:08:08;3.90;99.90
12335;DHT22;6233;51.560;9.986;2023-01-16T20:11:10;3.80;99.90
12335;DHT22;6233;51.560;9.986;2023-01-16T20:14:12;3.80;99.90
12335;DHT22;6233;51.560;9.986;2023-01-16T20:17:14;3.80;99.90
12335;DHT22;6233;51.560;9.986;2023-01-16T20:20:16;3.70;99.90
12335;DHT22;6233;51.560;9.986;2023-01-16T20:23:18;3.60;99.90
12335;DHT22;6233;51.560;9.986;2023-01-16T20:26:19;3.60;99.90
12335;DHT22;6233;51.560;9.986;2023-01-16T20:29:22;3.50;99.90
12335;DHT22;6233;51.560;9.986;2023-01-16T20:32:24;3.50;99.90
12335;DHT22;6233;51.560;9.986;2023-01-16T20:35:28;3.50;99.90
12335;DHT22;6233;51.560;9.986;2023-01-16T20:38:29;3.40;99.90
12335;DHT22;6233;51.560;9.986;2023-01-16T20:41:31;3.40;99.90
12335;DHT22;6233;51.560;9.986;2023-01-16T20:44:51;3.40;99.90
12335;DHT22;6233;51.560;9.986;2023-01-16T20:48:17;3.40;99.90
12335;DHT22;6233;51.560;9.986;2023-01-16T20:51:22;3.40;99.90
12335;DHT22;6233;51.560;9.986;2023-01-16T20:54:24;3.30;99.90
12335;DHT22;6233;51.560;9.986;2023-01-16T20:57:26;3.30;99.90
12335;DHT22;6233;51.560;9.986;2023-01-16T21:00:32;3.30;99.90
12335;DHT22;6233;51.560;9.986;2023-01-16T21:03:33;3.30;99.90
12335;DHT22;6233;51.560;9.986;2023-01-16T21:06:35;3.30;99.90
12335;DHT22;6233;51.560;9.986;2023-01-16T21:09:37;3.40;99.90
12335;DHT22;6233;51.560;9.986;2023-01-16T21:12:39;3.40;99.90
12335;DHT22;6233;51.560;9.986;2023-01-16T21:15:59;3.40;99.90
12335;DHT22;6233;51.560;9.986;2023-01-16T21:19:19;3.40;99.90
12335;DHT22;6233;51.560;9.986;2023-01-16T21:22:41;3.40;99.90
12335;DHT22;6233;51.560;9.986;2023-01-16T21:25:56;3.40;99.90
12335;DHT22;6233;51.560;9.986;2023-01-16T21:28:58;3.40;99.90
12335;DHT22;6233;51.560;9.986;2023-01-16T21:32:01;3.30;99.90
12335;DHT22;6233;51.560;9.986;2023-01-16T21:35:05;3.30;99.90
12335;DHT22;6233;51.560;9.986;2023-01-16T21:38:06;3.30;99.90
12335;DHT22;6233;51.560;9.986;2023-01-16T21:41:13;3.30;99.90
12335;DHT22;6233;51.560;9.986;2023-01-16T21:44:15;3.30;99.90
12335;DHT22;6233;51.560;9.986;2023-01-16T21:47:36;3.30;99.90
12335;DHT22;6233;51.560;9.986;2023-01-16T21:50:38;3.30;99.90
12335;DHT22;6233;51.560;9.986;2023-01-16T21:53:45;3.40;99.90
12335;DHT22;6233;51.560;9.986;2023-01-16T21:56:47;3.40;99.90
12335;DHT22;6233;51.560;9.986;2023-01-16T21:59:49;3.40;99.90
12335;DHT22;6233;51.560;9.986;2023-01-16T22:02:53;3.40;99.90
12335;DHT22;6233;51.560;9.986;2023-01-16T22:05:54;3.40;99.90
12335;DHT22;6233;51.560;9.986;2023-01-16T22:08:57;3.40;99.90
12335;DHT22;6233;51.560;9.986;2023-01-16T22:11:59;3.40;99.90
12335;DHT22;6233;51.560;9.986;2023-01-16T22:15:19;3.40;99.90
12335;DHT22;6233;51.560;9.986;2023-01-16T22:18:40;3.40;99.90
12335;DHT22;6233;51.560;9.986;2023-01-16T22:21:41;3.40;99.90
12335;DHT22;6233;51.560;9.986;2023-01-16T22:24:45;3.40;99.90
12335;DHT22;6233;51.560;9.986;2023-01-16T22:27:51;3.40;99.90
12335;DHT22;6233;51.560;9.986;2023-01-16T22:30:54;3.40;99.90
12335;DHT22;6233;51.560;9.986;2023-01-16T22:33:56;3.30;99.90
12335;DHT22;6233;51.560;9.986;2023-01-16T22:36:57;3.30;99.90
12335;DHT22;6233;51.560;9.986;2023-01-16T22:39:59;3.40;99.90
12335;DHT22;6233;51.560;9.986;2023-01-16T22:43:01;3.30;99.90
12335;DHT22;6233;51.560;9.986;2023-01-16T22:46:41;3.20;99.90
12335;DHT22;6233;51.560;9.986;2023-01-16T22:49:43;3.20;99.90
12335;DHT22;6233;51.560;9.986;2023-01-16T22:52:44;3.20;99.90
12335;DHT22;6233;51.560;9.986;2023-01-16T22:55:54;3.30;99.90